Flight Track Log - Related Links

Times and Time Zones

All times are in EDT time to prevent confusion due to time zone crossing. See the SWA271 flight status page for this flight to view local times or setup timezone preferences in your user account.

Time Position Orientation Groundspeed Altitude Reporting Facility
EDT Latitude Longitude Course Direction KTS MPH feet Rate Location/Type
Fri 03:27:59 PM 41.7833 -87.8167 37° Northeast 217 250 3,000  Level Chicago TRACON
Fri 03:28:59 PM 41.8333 -87.7667 93° East 271 312 3,400 720 Climbing Chicago TRACON
Fri 03:30:54 PM 41.8264 -87.5917 99° East 264 304 5,100 1,611 Climbing Chicago Center
Fri 03:31:54 PM 41.8142 -87.4889 99° East 271 312 8,100 2,850 Climbing Chicago Center
Fri 03:32:54 PM 41.8019 -87.3806 99° East 278 320 10,800 2,900 Climbing Chicago Center
Fri 03:34:54 PM 41.7722 -87.1225 95° East 336 387 16,800 2,867 Climbing Chicago Center
Fri 03:35:54 PM 41.7633 -86.9864 89° East 353 406 19,400 2,400 Climbing Chicago Center
Fri 03:36:54 PM 41.7644 -86.8472 88° East 364 419 21,600 2,150 Climbing Chicago Center
Fri 03:37:54 PM 41.7675 -86.6994 89° East 371 427 23,700 1,900 Climbing Chicago Center
Fri 03:38:54 PM 41.7683 -86.5603 91° East 401 461 25,400 1,800 Climbing Chicago Center
Fri 03:39:54 PM 41.7667 -86.4072 109° East 406 467 27,300 1,650 Climbing Chicago Center
Fri 03:40:54 PM 41.7292 -86.2586 111° Southeast 415 478 28,700 850 Climbing Chicago Center
Fri 03:41:54 PM 41.6808 -86.0914 120° Southeast 434 499 29,000 100 Climbing Chicago Center
Fri 03:42:54 PM 41.6181 -85.9444 132° Southeast 444 511 28,900 -50 Descending Chicago Center
Fri 03:43:54 PM 41.5308 -85.8158 132° Southeast 464 534 28,900  Level Chicago Center
Fri 03:44:54 PM 41.4456 -85.6875 130° Southeast 471 542 28,900  Level Chicago Center
Fri 03:45:54 PM 41.3642 -85.5592 130° Southeast 466 536 28,900  Level Chicago Center
Fri 03:46:54 PM 41.2828 -85.4314 131° Southeast 461 531 28,900  Level Chicago Center
Fri 03:48:29 PM 41.1561 -85.2381 131° Southeast 432 497 28,900  Level Indianapolis Center
Fri 03:49:29 PM 41.0744 -85.1150 131° Southeast 443 510 28,900 -600 Level Indianapolis Center
Fri 03:50:29 PM 40.9925 -84.9892 130° Southeast 443 510 27,700 -2,050 Descending Indianapolis Center
Fri 03:51:29 PM 40.9211 -84.8753 126° Southeast 443 510 24,800 -2,350 Descending Indianapolis Center
Fri 03:52:29 PM 40.8494 -84.7450 115° Southeast 441 507 23,000 -900 Descending Indianapolis Center
Fri 03:53:29 PM 40.8008 -84.6097 112° Southeast 413 475 23,000  Level Indianapolis Center
Fri 03:54:29 PM 40.7542 -84.4583 113° Southeast 408 470 23,000  Level Indianapolis Center
Fri 03:55:29 PM 40.7111 -84.3236 111° Southeast 399 459 23,000  Level Indianapolis Center
Fri 03:56:29 PM 40.6703 -84.1864 113° Southeast 399 459 23,000 -450 Level Indianapolis Center
Fri 03:57:29 PM 40.6272 -84.0547 112° Southeast 394 453 22,100 -1,450 Descending Indianapolis Center
Fri 03:58:29 PM 40.5881 -83.9286 113° Southeast 383 441 20,100 -1,950 Descending Indianapolis Center
Fri 03:59:29 PM 40.5489 -83.8083 112° Southeast 365 420 18,200 -1,900 Descending Indianapolis Center
Fri 04:00:29 PM 40.5136 -83.6964 114° Southeast 345 397 16,300 -2,000 Descending Indianapolis Center
Fri 04:01:29 PM 40.4761 -83.5844 111° Southeast 340 391 14,200 -1,850 Descending Indianapolis Center
Fri 04:02:29 PM 40.4469 -83.4861 135° Southeast 327 376 12,600 -1,867 Descending Indianapolis Center
Fri 04:02:59 PM 40.4094 -83.4372 130° Southeast 313 360 11,400 -1,900 Descending Indianapolis Center
Fri 04:03:29 PM 40.3864 -83.4017 140° Southeast 317 365 10,700 -1,377 Descending Indianapolis Center
Fri 04:04:00 PM 40.3489 -83.3608 135° Southeast 305 351 10,000 -1,565 Descending Indianapolis Center
Fri 04:05:01 PM 40.2903 -83.2850 133° Southeast 282 325 8,300 -1,721 Descending Indianapolis Center
Fri 04:06:02 PM 40.2358 -83.2089 135° Southeast 285 328 6,500 -1,131 Descending Indianapolis Center
Fri 04:07:03 PM 40.1794 -83.1358 127° Southeast 279 321 6,000 -248 Descending Indianapolis Center
Fri 04:08:03 PM 40.1353 -83.0600 113° Southeast 264 304 6,000  Level Indianapolis Center
Fri 04:09:05 PM 40.1058 -82.9708 102° East 270 311 6,000  Level Indianapolis Center
Fri 04:10:05 PM 40.0908 -82.8786 103° East 249 287 6,000 -496 Level Indianapolis Center
Fri 04:11:06 PM 40.0756 -82.7947 100° East 236 272 5,000 -689 Descending Indianapolis Center
Fri 04:12:07 PM 40.0647 -82.7108 146° Southeast 239 275 4,600 -885 Descending Indianapolis Center
Fri 04:13:08 PM 40.0183 -82.6706 227° Southwest 231 266 3,200 -787 Descending Indianapolis Center
Fri 04:14:09 PM 39.9833 -82.7197 275° West 207 238 3,000 -492 Descending Indianapolis Center
Fri 04:15:10 PM 39.9881 -82.7847 277° West 179 206 2,200 -738 Descending Indianapolis Center
Fri 04:16:11 PM 39.9925 -82.8336 277° West 138 159 1,500 -689 Descending Indianapolis Center

Login

Don't have an account? Register now (free) for customized features, flight alerts, and more!